ZGS weather

La Romaine Airport
La Romaine, Quebec, Canada

Public forecast

Using degrees Celsius for public forecast. Weather courtesy of forecast.io.

METAR (pilot weather report)

Closest report is Natashquan Airport, 42.8 nm (79.3 km) W. Retrieved 2019/09/23 13:00 UTC (2 hours ago):

CYNA 231300Z AUTO 26010KT 1/4SM FG VV002 11/11 A2928 RMK SLP915 DENSITY ALT 300FT

TAF (pilot weather forecast)

Closest forecast is Natashquan Airport, 42.8 nm (79.3 km) W. Retrieved 2019/09/23 14:00 UTC (48 minutes ago):

TAF CYNA 231338Z 2314/2402 25010G20KT 1/4SM FG VV002 BECMG 2315/2317 6SM BR SCT005 BKN030 FM231700 26015G25KT P6SM SCT030 FM232000 30015G25KT P6SM SCT030 TEMPO 2320/2324 BKN030 BECMG 2320/2322 30010G20KT RMK FCST BASED ON AUTO OBS. NXT FCST BY 232000Z